Portada
METAR-TAF:

METAR-TAF

Aeroports :

Mikkeli, Finlàndia

latitud: 61-44N, longitud: 027-18E, altitud: 138 m

Observació

L'informe es va fer fa 39 minuts, a les 15:50 UTC
Vent 7 kt del Oest/Nord-Oest, variant entre Oest i Nord
Temperatura -4°C
Humitat 86%
Pressió 1011 hPa
Visibilitat 10 km o més
Cel cobert a una alçada de 1300 ft

METAR: EFMI 101550Z AUTO 29007KT 260V010 9999 OVC013 M04/M06 Q1011

Hora: 18:29 (16:29 UTC)


TAF: manca

Observacions i pronòstics meteorològics de més de 4000 aeroports (METAR i TAF).

Les estacions disponibles són els punts grocs i vermells al mapa.

Posi el ratolí al punt desitjat per veure el nom de l'estació.

Feu clic per veure les observacions i els pronòstics meteorològics.

Per canviar el mapa: feu clic els botons verds amb una creu de color negre per apropar; al botó verd amb un guió per allunyar la imatge; o en les fletxes verdes per a mapes adjacents.


METAR-TAF: